Latest Weather Observations for Goulburn Airport

IDN60901

Issued at 6:41 am EDT Tuesday 23 December 2014 (issued every 10 minutes, with the page automatically refreshed every 10 minutes)

About weather observations | Map of Canberra area stations | Latest observations for Canberra area | Other Formats
Station Details ID: 070330 Name: GOULBURN AIRPORT AWS Lat: -34.81 Lon: 149.73 Height: 640.0 m
Data from the previous 72 hours. | See also: Recent months at Goulburn Airport
Date/Time
EDT
Tmp

°C
App
Tmp
°C
Dew
Point
°C
Rel
Hum
%
Delta-T

°C
Wind Press
QNH
hPa
Press
MSL
hPa
Rain
since
9 am
mm
Dir
 
Spd
km/h
Gust
km/h
Spd
kts
Gust
kts
23/06:30am 16.5 15.8 15.5 94 0.6 NNE 13 17 7 9 1015.0 1012.6 4.2
23/05:30am 16.3 15.9 15.2 93 0.7 NE 11 15 6 8 1014.9 1012.5 4.2
23/05:00am 16.2 17.0 14.9 92 0.8 NE 4 6 2 3 1015.0 1012.6 4.2
23/04:30am 16.5 17.1 15.2 92 0.8 ENE 6 7 3 4 1015.0 1012.6 4.0
23/04:00am 16.4 18.0 14.9 91 0.9 CALM 0 0 0 0 1015.1 1012.7 4.0
23/03:30am 16.6 16.9 15.1 91 0.9 SSE 7 7 4 4 1015.5 1013.2 3.2
23/03:00am 16.9 18.2 15.1 89 1.1 NE 2 6 1 3 1015.9 1013.6 2.6
23/02:30am 17.1 17.4 14.9 87 1.3 NW 7 9 4 5 1016.1 1013.8 2.0
23/02:00am 17.4 17.3 15.0 86 1.4 NNW 9 17 5 9 1016.4 1014.1 0.8
23/01:30am 17.1 17.6 15.1 88 1.2 WNW 6 6 3 3 1016.7 1014.4 0.4
23/01:00am 17.4 17.7 15.0 86 1.4 N 7 11 4 6 1017.0 1014.7 0.2
23/12:30am 17.9 18.1 14.6 81 2.0 NE 7 13 4 7 1016.8 1014.5 0.0
 
Date/Time
EDT
Tmp

°C
App
Tmp
°C
Dew
Point
°C
Rel
Hum
%
Delta-T

°C
Wind Press
QNH
hPa
Press
MSL
hPa
Rain
since
9 am
mm
Dir
 
Spd
km/h
Gust
km/h
Spd
kts
Gust
kts
22/11:30pm 18.9 17.5 13.3 70 3.3 NNE 13 19 7 10 1016.8 1014.5 0.0
22/11:00pm 19.0 17.5 13.2 69 3.4 NE 13 17 7 9 1016.6 1014.3 0.0
22/10:30pm 19.7 17.3 12.7 64 4.1 NE 17 22 9 12 1016.2 1013.9 0.0
22/10:00pm 20.4 18.1 13.1 63 4.3 ENE 17 24 9 13 1016.2 1013.9 0.0
22/09:30pm 20.6 19.2 14.5 68 3.7 E 15 22 8 12 1016.1 1013.8 0.0
22/09:00pm 20.1 19.7 16.1 78 2.5 S 13 15 7 8 1016.8 1014.5 0.0
22/08:30pm 20.0 20.1 15.6 76 2.7 SE 9 11 5 6 1016.6 1014.3 0.0
22/08:00pm 20.9 20.4 14.8 68 3.7 SE 11 17 6 9 1016.6 1014.3 0.0
22/07:30pm 22.3 19.6 13.6 58 5.2 ENE 20 30 11 16 1016.1 1013.8 0.0
22/07:00pm 22.8 18.6 12.4 52 6.1 NE 26 37 14 20 1015.7 1013.4 0.0
22/06:30pm 22.9 20.6 13.1 54 5.8 NE 17 20 9 11 1015.3 1013.0 0.0
22/05:30pm 22.7 21.4 14.8 61 4.8 E 15 19 8 10 1015.6 1013.3 0.0
22/05:00pm 23.8 23.2 13.4 52 6.2 NE 9 13 5 7 1016.6 1014.3 0.0
22/04:30pm 24.2 22.5 13.7 52 6.3 E 15 20 8 11 1016.4 1014.1 0.0
22/04:00pm 24.0 19.8 13.5 52 6.3 NNE 28 35 15 19 1016.1 1013.8 0.0
22/03:30pm 24.3 20.6 13.8 52 6.3 NE 26 33 14 18 1015.6 1013.3 0.0
22/03:00pm 25.3 20.1 13.5 48 7.1 NE 33 44 18 24 1015.6 1013.3 0.0
22/02:30pm 22.8 17.7 13.0 54 5.8 NE 32 43 17 23 1015.8 1013.5 0.0
22/02:00pm 22.7 18.0 10.5 46 6.9 NE 26 35 14 19 1016.1 1013.8 0.0
22/01:54pm 22.6 17.2 11.0 48 6.6 NE 30 48 16 26 1016.2 1013.9 0.0
22/01:30pm 23.0 18.7 12.0 50 6.4 NE 26 37 14 20 1016.4 1014.1 0.0
22/01:00pm 23.4 18.2 10.1 43 7.5 NE 28 50 15 27 1016.7 1014.4 0.0
22/12:30pm 26.5 21.9 9.8 35 9.5 NE 24 32 13 17 1016.8 1014.5 0.0
22/12:15pm 26.0 22.4 11.7 41 8.4 N 22 46 12 25 1017.0 1014.7 0.0
22/12:00pm 28.0 26.3 9.8 32 10.4 WNW 9 19 5 10 1017.1 1014.8 0.0
22/11:30am 28.5 27.0 10.7 33 10.4 NW 9 13 5 7 1017.4 1015.1 0.0
22/11:00am 27.7 25.5 10.9 35 9.8 WNW 13 26 7 14 1017.3 1015.0 0.0
22/10:30am 27.2 26.2 12.4 40 8.8 W 9 13 5 7 1017.5 1015.2 0.0
22/10:00am 26.0 26.0 13.5 46 7.5 N 6 11 3 6 1017.6 1015.3 0.0
22/09:30am 24.1 24.2 14.5 55 5.9 NNW 7 11 4 6 1017.8 1015.5 0.0
22/09:00am 22.0 22.7 14.6 63 4.5 S 4 7 2 4 1018.0 1015.8 0.0
22/08:30am 19.7 21.2 14.7 73 3.0 CALM 0 0 0 0 1018.0 1015.8 0.0
22/08:00am 18.2 19.9 15.1 82 1.9 CALM 0 0 0 0 1017.8 1015.5 0.0
22/07:30am 15.8 17.5 15.2 96 0.4 CALM 0 0 0 0 1017.7 1015.4 0.0
22/07:00am 14.2 15.3 13.4 95 0.5 CALM 0 0 0 0 1017.5 1015.2 0.0
22/06:30am 13.7 13.9 13.1 96 0.3 SW 4 6 2 3 1017.3 1015.0 0.0
22/06:00am 12.8 12.1 12.0 95 0.4 SSE 7 7 4 4 1017.0 1014.7 0.0
22/05:30am 12.7 12.1 11.8 94 0.5 SSW 6 7 3 4 1016.7 1014.4 0.0
22/05:00am 13.1 13.4 12.2 94 0.5 SSW 2 6 1 3 1016.2 1013.9 0.0
22/04:30am 13.2 13.1 12.1 93 0.6 SW 4 11 2 6 1016.0 1013.7 0.0
22/04:00am 14.0 13.6 12.9 93 0.6 SW 7 9 4 5 1016.2 1013.9 0.0
22/03:30am 13.8 13.2 12.2 90 0.9 SW 7 11 4 6 1016.3 1014.0 0.0
22/03:00am 15.1 15.3 13.0 87 1.2 W 4 7 2 4 1016.3 1014.0 0.0
22/02:30am 16.6 16.9 13.3 81 1.9 W 4 9 2 5 1016.4 1014.1 0.0
22/02:00am 17.9 16.7 15.0 83 1.7 NNE 15 17 8 9 1016.6 1014.3 0.0
22/01:30am 18.0 17.2 15.1 83 1.7 NE 13 17 7 9 1016.9 1014.6 0.0
22/01:00am 18.3 17.9 15.2 82 1.9 NE 11 15 6 8 1017.1 1014.8 0.0
22/12:30am 18.7 18.0 15.4 81 2.0 NE 13 19 7 10 1017.4 1015.1 0.0
22/12:00am 18.6 18.2 15.1 80 2.1 NNE 11 15 6 8 1017.3 1015.0 0.0
 
Date/Time
EDT
Tmp

°C
App
Tmp
°C
Dew
Point
°C
Rel
Hum
%
Delta-T

°C
Wind Press
QNH
hPa
Press
MSL
hPa
Rain
since
9 am
mm
Dir
 
Spd
km/h
Gust
km/h
Spd
kts
Gust
kts
21/11:30pm 19.1 18.0 15.2 78 2.4 NE 15 20 8 11 1017.2 1014.9 0.0
21/11:00pm 19.4 18.6 15.1 76 2.6 N 13 17 7 9 1017.3 1015.0 0.0
21/10:30pm 19.7 18.8 14.9 74 2.9 N 13 17 7 9 1017.2 1014.9 0.0
21/10:00pm 20.2 19.0 15.0 72 3.1 NNE 15 20 8 11 1017.2 1014.9 0.0
21/09:30pm 20.9 18.8 14.8 68 3.7 NNE 19 26 10 14 1017.1 1014.8 0.0
21/09:00pm 21.7 18.6 14.6 64 4.3 NE 24 32 13 17 1016.4 1014.1 0.0
21/08:30pm 22.7 20.0 14.5 60 5.0 NE 22 30 12 16 1016.3 1014.0 0.0
21/08:00pm 23.6 21.0 13.8 54 5.9 ENE 20 28 11 15 1016.1 1013.8 0.0
21/07:30pm 24.5 21.8 13.4 50 6.7 ENE 20 30 11 16 1015.7 1013.4 0.0
21/07:00pm 25.5 22.4 13.4 47 7.3 NE 22 30 12 16 1015.2 1012.9 0.0
21/06:30pm 27.3 26.1 11.7 37 9.2 NW 9 19 5 10 1015.1 1012.7 0.0
21/06:00pm 28.9 26.5 6.9 25 12.1 WNW 9 15 5 8 1015.0 1012.6 0.0
21/05:30pm 28.6 26.1 6.7 25 12.0 SSW 9 19 5 10 1015.1 1012.7 0.0
21/05:00pm 28.5 25.2 6.6 25 11.9 W 13 28 7 15 1015.3 1013.0 0.0
21/04:30pm 27.6 24.0 6.9 27 11.3 W 15 22 8 12 1015.6 1013.3 0.0
21/04:00pm 28.3 25.9 7.0 26 11.7 WSW 9 17 5 9 1015.7 1013.4 0.0
21/03:30pm 28.6 24.6 6.7 25 12.0 WNW 17 26 9 14 1016.0 1013.7 0.0
21/03:00pm 28.2 24.6 6.9 26 11.7 W 15 30 8 16 1016.1 1013.8 0.0
21/02:30pm 27.9 23.6 7.2 27 11.4 W 19 32 10 17 1016.4 1014.1 0.0
21/02:00pm 27.4 25.4 10.2 34 9.9 WSW 11 24 6 13 1016.9 1014.6 0.0
21/01:30pm 26.8 23.8 7.8 30 10.5 WNW 13 24 7 13 1017.1 1014.8 0.0
21/01:00pm 27.2 24.7 11.2 36 9.4 WNW 15 26 8 14 1017.5 1015.2 0.0
21/12:30pm 26.0 23.6 10.2 37 9.0 NE 13 19 7 10 1017.9 1015.7 0.0
21/12:00pm 25.5 23.2 10.5 39 8.6 WSW 13 20 7 11 1018.4 1016.1 0.0
21/11:30am 23.9 22.0 9.1 39 8.2 N 9 20 5 11 1018.7 1016.4 0.0
21/11:00am 23.6 21.7 9.2 40 8.0 N 9 13 5 7 1018.7 1016.4 0.0
21/10:30am 23.0 20.6 11.4 48 6.7 ENE 15 22 8 12 1018.6 1016.3 0.0
21/10:00am 21.9 18.9 10.7 49 6.3 NE 17 22 9 12 1018.5 1016.2 0.0
21/09:30am 20.7 18.5 10.8 53 5.6 NNE 13 22 7 12 1018.7 1016.4 0.0
21/09:00am 18.8 17.0 10.9 60 4.4 NE 11 13 6 7 1018.9 1016.6 0.0
21/08:30am 17.6 16.6 10.9 65 3.7 NNE 7 11 4 6 1019.1 1016.8 0.0
21/08:00am 16.6 15.5 10.5 67 3.3 E 7 11 4 6 1018.9 1016.6 0.0
21/07:30am 14.9 14.7 10.5 75 2.4 E 2 7 1 4 1018.9 1016.6 0.0
21/07:00am 14.2 14.0 10.6 79 1.9 SE 2 7 1 4 1018.8 1016.5 0.0
21/06:30am 12.5 12.9 11.4 93 0.6 CALM 0 2 0 1 1018.7 1016.4 0.0
21/06:00am 10.9 9.7 9.5 91 0.7 E 6 7 3 4 1018.4 1016.1 0.0
21/05:42am 11.7 10.4 10.1 90 0.8 E 7 9 4 5 1018.3 1016.0 0.0
21/05:30am 12.0 10.8 10.2 89 1.0 E 7 9 4 5 1018.3 1016.0 0.0
21/05:00am 12.9 11.5 11.0 88 1.0 ENE 9 13 5 7 1018.3 1016.0 0.0
21/04:30am 13.3 11.2 11.2 87 1.1 ENE 13 19 7 10 1018.3 1016.0 0.0
21/04:00am 13.3 11.2 11.0 86 1.2 ENE 13 17 7 9 1018.1 1015.9 0.0
21/03:30am 13.5 11.4 11.2 86 1.3 ENE 13 17 7 9 1018.3 1016.0 0.0
21/03:00am 13.5 11.4 11.2 86 1.3 ENE 13 15 7 8 1018.3 1016.0 0.0
21/02:30am 13.5 11.4 11.2 86 1.3 ENE 13 19 7 10 1018.5 1016.2 0.0
21/02:00am 13.6 11.9 11.1 85 1.4 ENE 11 13 6 7 1018.8 1016.5 0.0
21/01:30am 13.7 11.6 11.2 85 1.4 ENE 13 17 7 9 1018.9 1016.6 0.0
21/01:00am 13.9 11.9 11.4 85 1.4 ENE 13 20 7 11 1019.2 1016.9 0.0
21/12:30am 14.1 12.1 11.6 85 1.4 ENE 13 19 7 10 1019.4 1017.2 0.0
21/12:00am 13.8 12.7 12.0 89 1.0 E 9 13 5 7 1019.7 1017.5 0.0
 
Date/Time
EDT
Tmp

°C
App
Tmp
°C
Dew
Point
°C
Rel
Hum
%
Delta-T

°C
Wind Press
QNH
hPa
Press
MSL
hPa
Rain
since
9 am
mm
Dir
 
Spd
km/h
Gust
km/h
Spd
kts
Gust
kts
20/11:30pm 13.3 11.3 11.5 89 1.0 ESE 13 17 7 9 1019.7 1017.5 0.0
20/11:00pm 13.4 11.4 11.6 89 1.0 ESE 13 17 7 9 1019.9 1017.6 0.0
20/10:30pm 13.7 11.4 11.6 87 1.2 ESE 15 19 8 10 1019.6 1017.4 0.0
20/10:07pm 14.1 11.4 11.8 86 1.3 ESE 17 22 9 12 1019.5 1017.3 0.0
20/10:00pm 14.2 11.5 11.7 85 1.4 ESE 17 22 9 12 1019.4 1017.2 0.0
20/09:30pm 14.9 11.9 11.9 82 1.7 ESE 19 24 10 13 1019.0 1016.7 0.0
20/09:00pm 15.9 13.0 12.3 79 2.0 ESE 19 28 10 15 1018.6 1016.3 0.0
20/08:30pm 16.9 13.5 12.4 75 2.6 ESE 22 32 12 17 1018.0 1015.8 0.0
20/08:00pm 18.2 14.9 12.9 71 3.1 ESE 22 30 12 16 1017.5 1015.2 0.0
20/07:30pm 20.4 16.8 12.9 62 4.4 ENE 24 33 13 18 1016.7 1014.4 0.0
20/07:00pm 22.0 18.2 12.3 54 5.6 ENE 24 30 13 16 1016.1 1013.8 0.0
20/06:30pm 23.7 19.8 12.0 48 6.8 ENE 24 30 13 16 1015.5 1013.2 0.0
20/06:00pm 25.6 24.0 8.6 34 9.5 SSW 7 13 4 7 1015.2 1012.9 0.0
20/05:30pm 25.1 22.7 6.8 31 9.8 SSE 9 13 5 7 1015.2 1012.9 0.0
20/05:00pm 25.0 22.1 6.7 31 9.8 SSE 11 17 6 9 1015.3 1013.0 0.0
20/04:30pm 24.5 22.6 6.7 32 9.5 WSW 6 11 3 6 1015.5 1013.2 0.0
20/04:00pm 24.8 21.6 7.0 32 9.6 SW 13 22 7 12 1015.7 1013.4 0.0
20/03:30pm 24.3 22.0 7.4 34 9.1 SSW 9 17 5 9 1016.0 1013.7 0.0
20/03:00pm 24.4 22.7 7.5 34 9.2 SSW 6 19 3 10 1016.3 1014.0 0.0
20/02:30pm 23.6 21.3 7.3 35 8.8 W 9 15 5 8 1016.7 1014.4 0.0
20/02:00pm 23.1 20.5 6.0 33 9.0 WSW 9 26 5 14 1016.9 1014.6 0.0
20/01:30pm 22.4 19.2 7.0 37 8.2 NNW 13 20 7 11 1017.1 1014.8 0.0
20/01:00pm 21.5 18.5 6.2 37 8.0 N 11 32 6 17 1017.4 1015.1 0.0
20/12:30pm 20.7 18.9 8.0 44 6.8 SSE 7 15 4 8 1017.8 1015.5 0.0
20/12:00pm 19.7 17.6 8.1 47 6.2 NNE 9 20 5 11 1018.3 1016.0 0.0
20/11:30am 19.0 16.9 8.4 50 5.7 NE 9 17 5 9 1018.6 1016.3 0.0
20/11:00am 18.4 16.5 9.2 55 5.0 NW 9 17 5 9 1018.7 1016.4 0.0
20/10:30am 17.0 14.9 8.4 57 4.5 N 9 19 5 10 1018.6 1016.3 0.0
20/10:00am 15.4 13.4 8.6 64 3.6 NNE 9 17 5 9 1018.7 1016.4 0.0
20/09:30am 15.0 11.7 8.0 63 3.6 NE 15 22 8 12 1019.0 1016.7 0.0
20/09:00am 14.6 11.9 8.8 68 3.0 NNE 13 19 7 10 1019.1 1016.8 0.0
20/08:40am 13.9 10.3 8.5 70 2.8 NE 17 22 9 12 1019.1 1016.8 0.0
20/08:30am 14.6 11.3 9.6 72 2.7 NE 17 32 9 17 1019.1 1016.8 0.0
20/08:00am 13.1 9.7 9.0 76 2.1 NE 17 24 9 13 1018.8 1016.5 0.0
20/07:30am 12.5 9.4 8.8 78 1.9 ENE 15 20 8 11 1018.7 1016.4 0.0
20/07:10am 12.4 9.4 9.1 80 1.7 ENE 15 20 8 11 1018.5 1016.2 0.0
20/07:00am 12.6 9.6 9.4 81 1.7 NE 15 17 8 9 1018.4 1016.1 0.0

Latest Capital City Observations: Canberra | Sydney | Melbourne | Brisbane | Adelaide | Perth | Hobart | Darwin

Other Formats:

Comma delimited format used in spreadsheet applications
http://www.bom.gov.au/fwo/IDN60903/IDN60903.95716.axf

JavaScript Object Notation format (JSON) in row-major order
http://www.bom.gov.au/fwo/IDN60903/IDN60903.95716.json